createdAt,value
2023-03-26T00:01:37.500Z,8.90
2023-03-26T00:04:07.837Z,9.50
2023-03-26T00:06:39.645Z,10.13
2023-03-26T00:09:10.520Z,9.30
2023-03-26T00:11:40.290Z,13.30
2023-03-26T00:14:09.601Z,9.10
2023-03-26T00:16:37.925Z,11.30
2023-03-26T00:19:06.395Z,11.17
2023-03-26T00:21:34.854Z,7.97
2023-03-26T00:24:05.393Z,6.50
2023-03-26T00:26:34.454Z,6.23
2023-03-26T00:29:04.441Z,6.40
2023-03-26T00:31:32.797Z,9.80
2023-03-26T00:34:03.678Z,10.57
2023-03-26T00:36:35.395Z,8.87
2023-03-26T00:39:05.930Z,5.40
2023-03-26T00:41:37.481Z,8.43
2023-03-26T00:44:07.674Z,8.87
2023-03-26T00:46:36.458Z,5.03
2023-03-26T00:49:05.386Z,6.10
2023-03-26T00:51:35.208Z,5.43
2023-03-26T00:54:03.920Z,5.93
2023-03-26T00:56:32.556Z,8.47
2023-03-26T00:59:01.512Z,9.73
2023-03-26T01:01:32.549Z,5.90
2023-03-26T01:04:28.505Z,6.27
2023-03-26T01:06:58.654Z,5.93
2023-03-26T01:09:34.105Z,7.13
2023-03-26T01:12:04.287Z,5.57
2023-03-26T01:14:32.854Z,6.03
2023-03-26T01:17:04.307Z,8.50
2023-03-26T01:19:39.604Z,10.50
2023-03-26T01:22:11.503Z,8.97
2023-03-26T01:24:42.746Z,8.73
2023-03-26T01:27:24.587Z,13.10
2023-03-26T01:29:56.504Z,10.17
2023-03-26T01:32:49.825Z,7.87
2023-03-26T01:35:28.314Z,6.70
2023-03-26T01:38:11.226Z,3.70
2023-03-26T01:40:47.239Z,4.30
2023-03-26T01:43:26.136Z,3.93
2023-03-26T01:45:57.137Z,6.47
2023-03-26T01:48:32.816Z,4.30
2023-03-26T01:51:01.388Z,5.87
2023-03-26T01:53:30.794Z,4.40
2023-03-26T01:56:13.047Z,3.97
2023-03-26T01:58:53.027Z,5.23
2023-03-26T02:01:30.515Z,4.20
2023-03-26T02:04:08.178Z,4.40
2023-03-26T02:06:44.720Z,3.03
2023-03-26T02:09:17.758Z,3.60
2023-03-26T02:11:49.999Z,4.93
2023-03-26T02:14:18.850Z,4.53
2023-03-26T02:16:48.061Z,6.10
2023-03-26T02:19:22.171Z,5.70
2023-03-26T02:21:51.519Z,4.27
2023-03-26T02:24:20.804Z,4.67
2023-03-26T02:26:50.824Z,5.00
2023-03-26T02:29:20.659Z,2.93
2023-03-26T02:31:50.099Z,5.57
2023-03-26T02:34:19.081Z,5.17
2023-03-26T02:36:47.626Z,4.53
2023-03-26T02:39:17.498Z,7.17
2023-03-26T02:41:46.098Z,8.70
2023-03-26T02:44:16.205Z,8.97
2023-03-26T02:46:44.779Z,8.53
2023-03-26T02:49:13.307Z,6.43
2023-03-26T02:51:41.970Z,11.03
2023-03-26T02:54:10.549Z,5.67
2023-03-26T02:56:39.229Z,9.00
2023-03-26T02:59:07.871Z,11.77
2023-03-26T03:01:43.041Z,10.63
2023-03-26T03:04:12.152Z,9.07
2023-03-26T03:06:41.764Z,8.67
2023-03-26T03:09:10.516Z,13.67
2023-03-26T03:11:39.858Z,8.87
2023-03-26T03:14:08.660Z,9.13
2023-03-26T03:16:38.643Z,10.50
2023-03-26T03:19:07.257Z,8.40
2023-03-26T03:21:35.914Z,8.77
2023-03-26T03:24:04.481Z,10.73
2023-03-26T03:26:34.251Z,10.40
2023-03-26T03:29:02.822Z,9.13
2023-03-26T03:31:31.837Z,10.70
2023-03-26T03:34:01.924Z,9.80
2023-03-26T03:36:30.548Z,13.00
2023-03-26T03:39:02.683Z,10.53
2023-03-26T03:41:31.487Z,9.53
2023-03-26T03:44:01.805Z,9.47
2023-03-26T03:46:30.790Z,8.10
2023-03-26T03:48:59.375Z,10.13
2023-03-26T03:51:29.407Z,10.67
2023-03-26T03:53:58.006Z,7.03
2023-03-26T03:56:26.642Z,8.40
2023-03-26T03:58:55.642Z,10.13
2023-03-26T04:01:24.154Z,8.90
2023-03-26T04:03:52.909Z,8.23
2023-03-26T04:06:21.439Z,9.67
2023-03-26T04:08:50.893Z,12.13
2023-03-26T04:11:19.076Z,13.90
2023-03-26T04:13:47.050Z,9.40
2023-03-26T04:16:15.443Z,9.10
2023-03-26T04:18:45.220Z,6.77
2023-03-26T04:21:15.768Z,8.00
2023-03-26T04:23:43.862Z,10.60
2023-03-26T04:26:18.631Z,10.47
2023-03-26T04:28:50.451Z,10.23
2023-03-26T04:31:24.132Z,13.67
2023-03-26T04:33:55.209Z,7.97
2023-03-26T04:36:28.538Z,8.07
2023-03-26T04:38:58.288Z,9.00
2023-03-26T04:41:27.783Z,9.00
2023-03-26T04:43:56.777Z,9.50
2023-03-26T04:46:25.409Z,11.50
2023-03-26T04:48:54.563Z,8.70
2023-03-26T04:51:27.116Z,7.03
2023-03-26T04:53:58.246Z,7.07
2023-03-26T04:56:40.642Z,6.50
2023-03-26T04:59:14.796Z,7.17
2023-03-26T05:01:46.019Z,7.07
2023-03-26T05:04:14.823Z,10.83
2023-03-26T05:06:43.421Z,13.40
2023-03-26T05:09:11.715Z,5.83
2023-03-26T05:11:41.299Z,13.37
2023-03-26T05:14:09.667Z,12.60
2023-03-26T05:16:39.463Z,8.50
2023-03-26T05:19:08.623Z,10.23
2023-03-26T05:21:37.006Z,10.70
2023-03-26T05:24:06.340Z,7.97
2023-03-26T05:26:34.890Z,9.97
2023-03-26T05:29:05.152Z,11.37
2023-03-26T05:31:33.240Z,7.90
2023-03-26T05:34:01.467Z,10.97
2023-03-26T05:36:29.704Z,7.67
2023-03-26T05:38:57.771Z,12.40
2023-03-26T05:41:25.874Z,15.53
2023-03-26T05:43:53.965Z,13.87
2023-03-26T05:46:23.408Z,9.43
2023-03-26T05:48:52.053Z,8.10
2023-03-26T05:51:20.586Z,7.17
2023-03-26T05:53:48.665Z,8.07
2023-03-26T05:56:16.939Z,10.20
2023-03-26T05:58:44.998Z,6.13
2023-03-26T06:01:16.809Z,9.77
2023-03-26T06:03:47.032Z,8.13
2023-03-26T06:06:17.426Z,11.90
2023-03-26T06:08:48.804Z,8.93
2023-03-26T06:11:31.036Z,8.07
2023-03-26T06:13:59.155Z,9.07
2023-03-26T06:16:28.390Z,7.17
2023-03-26T06:18:58.775Z,10.60
2023-03-26T06:21:27.158Z,9.53
2023-03-26T06:23:55.875Z,7.33
2023-03-26T06:26:24.107Z,8.80
2023-03-26T06:28:52.331Z,5.23
2023-03-26T06:31:20.495Z,8.47
2023-03-26T06:33:49.239Z,7.57
2023-03-26T06:36:18.814Z,9.27
2023-03-26T06:38:47.168Z,11.87
2023-03-26T06:41:15.472Z,3.47
2023-03-26T06:43:43.876Z,9.67
2023-03-26T06:46:13.260Z,5.93
2023-03-26T06:48:42.340Z,2.97
2023-03-26T06:51:11.008Z,7.90
2023-03-26T06:53:40.568Z,8.07
2023-03-26T06:56:10.057Z,5.73
2023-03-26T06:58:38.244Z,5.30
2023-03-26T07:01:06.827Z,11.13
2023-03-26T07:03:35.044Z,22.90
2023-03-26T07:06:03.367Z,8.73
2023-03-26T07:08:31.973Z,10.50
2023-03-26T07:11:01.505Z,5.93
2023-03-26T07:13:29.678Z,3.17
2023-03-26T07:15:57.766Z,5.30
2023-03-26T07:18:25.844Z,8.00
2023-03-26T07:20:54.800Z,3.23
2023-03-26T07:23:23.610Z,4.43
2023-03-26T07:25:52.591Z,4.10
2023-03-26T07:28:28.565Z,5.18
2023-03-26T07:31:05.258Z,4.00
2023-03-26T07:33:39.748Z,6.43
2023-03-26T07:36:20.137Z,4.90
2023-03-26T07:39:00.177Z,4.07
2023-03-26T07:41:36.034Z,7.20
2023-03-26T07:44:35.709Z,5.00
2023-03-26T07:47:12.710Z,3.80
2023-03-26T07:49:43.468Z,6.73
2023-03-26T07:52:12.801Z,4.67
2023-03-26T07:54:41.281Z,2.67
2023-03-26T07:57:18.048Z,2.60
2023-03-26T07:59:53.625Z,5.27
2023-03-26T08:02:43.250Z,7.07
2023-03-26T08:05:20.341Z,8.07
2023-03-26T08:08:05.053Z,6.67
2023-03-26T08:10:39.194Z,16.20
2023-03-26T08:13:23.850Z,5.43
2023-03-26T08:16:01.105Z,5.97
2023-03-26T08:18:41.966Z,6.13
2023-03-26T08:21:14.054Z,6.20
2023-03-26T08:23:55.824Z,8.53
2023-03-26T08:26:35.232Z,6.20
2023-03-26T08:29:11.939Z,3.53
2023-03-26T08:31:45.266Z,4.87
2023-03-26T08:34:14.530Z,5.43
2023-03-26T08:36:42.866Z,4.20
2023-03-26T08:39:11.690Z,6.57
2023-03-26T08:42:18.702Z,6.83
2023-03-26T08:45:13.221Z,7.43
2023-03-26T08:48:22.476Z,4.90
2023-03-26T08:51:33.187Z,7.30
2023-03-26T08:54:48.557Z,4.37
2023-03-26T08:57:48.919Z,6.47
2023-03-26T09:00:50.054Z,5.30
2023-03-26T09:03:48.118Z,2.83
2023-03-26T09:06:55.447Z,6.60
2023-03-26T09:10:06.729Z,8.27
2023-03-26T09:12:57.906Z,5.60
2023-03-26T09:16:06.463Z,3.80
2023-03-26T09:19:12.487Z,6.77
2023-03-26T09:22:25.863Z,4.67
2023-03-26T09:25:27.789Z,3.60
2023-03-26T09:28:19.235Z,7.27
2023-03-26T09:31:15.445Z,7.20
2023-03-26T09:33:59.346Z,6.20
2023-03-26T09:36:43.041Z,4.17
2023-03-26T09:39:18.773Z,6.70
2023-03-26T09:42:00.461Z,6.30
2023-03-26T09:45:04.150Z,4.43
2023-03-26T09:47:48.806Z,4.80
2023-03-26T09:50:52.984Z,5.47
2023-03-26T09:53:53.701Z,5.53
2023-03-26T09:56:33.021Z,6.50
2023-03-26T09:59:19.258Z,5.47
2023-03-26T10:01:55.702Z,7.13
2023-03-26T10:04:55.822Z,4.93
2023-03-26T10:07:46.943Z,3.57
2023-03-26T10:10:26.866Z,5.57
2023-03-26T10:13:13.635Z,5.37
2023-03-26T10:16:01.998Z,8.77
2023-03-26T10:18:39.606Z,11.90
2023-03-26T10:21:12.420Z,4.80
2023-03-26T10:23:54.506Z,4.40
2023-03-26T10:26:42.772Z,3.47
2023-03-26T10:30:10.217Z,3.40
2023-03-26T10:32:49.682Z,3.97
2023-03-26T10:35:27.080Z,4.47
2023-03-26T10:38:14.207Z,4.57
2023-03-26T10:40:53.064Z,5.07
2023-03-26T10:44:05.224Z,3.03
2023-03-26T10:47:03.618Z,5.23
2023-03-26T10:49:50.901Z,4.83
2023-03-26T10:52:23.059Z,4.07
2023-03-26T10:54:57.611Z,3.03
2023-03-26T10:57:38.751Z,4.10
2023-03-26T11:00:25.372Z,3.80
2023-03-26T11:03:20.650Z,2.60
2023-03-26T11:05:59.239Z,1.70
2023-03-26T11:08:36.706Z,2.57
2023-03-26T11:11:15.422Z,6.30
2023-03-26T11:13:53.198Z,4.07
2023-03-26T11:16:29.971Z,3.83
2023-03-26T11:19:05.045Z,3.80
2023-03-26T11:21:45.408Z,2.73
2023-03-26T11:24:39.306Z,3.50
2023-03-26T11:27:15.314Z,2.77
2023-03-26T11:29:52.878Z,4.73
2023-03-26T11:32:25.854Z,4.07
2023-03-26T11:35:00.277Z,3.33
2023-03-26T11:37:35.148Z,2.07
2023-03-26T11:40:08.833Z,4.50
2023-03-26T11:42:37.380Z,3.80
2023-03-26T11:45:09.184Z,2.83
2023-03-26T11:47:42.306Z,4.00
2023-03-26T11:50:17.625Z,4.30
2023-03-26T11:52:47.927Z,4.37
2023-03-26T11:55:16.852Z,5.43
2023-03-26T11:57:51.578Z,2.80
2023-03-26T12:00:23.179Z,3.23
2023-03-26T12:02:57.010Z,2.43
2023-03-26T12:05:26.779Z,3.40
2023-03-26T12:07:58.328Z,2.03
2023-03-26T12:10:31.145Z,3.00
2023-03-26T12:13:01.649Z,1.87
2023-03-26T12:15:31.497Z,3.40
2023-03-26T12:18:01.212Z,2.90
2023-03-26T12:20:38.617Z,2.17
2023-03-26T12:23:20.550Z,1.93
2023-03-26T12:26:07.137Z,3.23
2023-03-26T12:28:35.284Z,1.80
2023-03-26T12:31:05.400Z,2.80
2023-03-26T12:33:38.806Z,2.20
2023-03-26T12:36:20.652Z,3.53
2023-03-26T12:39:16.825Z,1.43
2023-03-26T12:44:42.836Z,1.77
2023-03-26T12:44:55.535Z,1.03
2023-03-26T12:47:56.060Z,2.17
2023-03-26T12:50:15.590Z,4.73
2023-03-26T12:53:02.427Z,2.00
2023-03-26T12:55:57.143Z,2.70
2023-03-26T12:58:47.938Z,4.00
2023-03-26T13:01:27.570Z,2.00
2023-03-26T13:04:34.397Z,4.50
2023-03-26T13:07:09.609Z,9.83
2023-03-26T13:09:49.627Z,2.53
2023-03-26T13:12:35.521Z,2.40
2023-03-26T13:15:22.056Z,1.80
2023-03-26T13:18:02.400Z,3.77
2023-03-26T13:20:40.198Z,3.90
2023-03-26T13:23:14.714Z,1.93
2023-03-26T13:25:49.180Z,2.30
2023-03-26T13:28:28.333Z,2.20
2023-03-26T13:31:05.243Z,2.03
2023-03-26T13:33:51.438Z,1.87
2023-03-26T13:36:24.978Z,1.93
2023-03-26T13:39:15.875Z,1.57
2023-03-26T13:42:08.501Z,3.27
2023-03-26T13:44:50.548Z,2.43
2023-03-26T13:47:21.598Z,2.37
2023-03-26T13:49:55.043Z,1.57
2023-03-26T13:52:27.976Z,3.50
2023-03-26T13:55:03.376Z,2.60
2023-03-26T13:57:36.420Z,2.33
2023-03-26T14:00:12.749Z,2.97
2023-03-26T14:02:42.354Z,1.33
2023-03-26T14:05:16.684Z,1.73
2023-03-26T14:07:47.656Z,3.23
2023-03-26T14:10:21.234Z,1.73
2023-03-26T14:12:58.611Z,1.60
2023-03-26T14:15:32.958Z,2.90
2023-03-26T14:18:10.813Z,2.57
2023-03-26T14:21:07.121Z,1.67
2023-03-26T14:24:06.612Z,3.80
2023-03-26T14:26:59.549Z,3.83
2023-03-26T14:29:57.010Z,3.87
2023-03-26T14:32:53.322Z,3.93
2023-03-26T14:35:35.205Z,4.37
2023-03-26T14:38:54.422Z,1.63
2023-03-26T14:41:25.948Z,3.10
2023-03-26T14:44:22.056Z,4.20
2023-03-26T14:50:08.348Z,2.83
2023-03-26T14:52:47.488Z,3.83
2023-03-26T14:55:24.839Z,2.50
2023-03-26T14:58:14.417Z,4.33
2023-03-26T15:01:22.914Z,3.50
2023-03-26T15:04:35.728Z,3.37
2023-03-26T15:07:34.644Z,4.30
2023-03-26T15:10:37.095Z,3.77
2023-03-26T15:13:22.608Z,4.93
2023-03-26T15:16:32.607Z,2.17
2023-03-26T15:19:31.327Z,5.93
2023-03-26T15:22:41.314Z,2.87
2023-03-26T15:25:45.426Z,3.37
2023-03-26T15:28:56.719Z,2.20
2023-03-26T15:31:58.101Z,4.73
2023-03-26T15:35:09.725Z,5.60
2023-03-26T15:38:11.462Z,4.20
2023-03-26T15:40:57.823Z,3.37
2023-03-26T15:43:33.281Z,1.77
2023-03-26T15:46:27.261Z,6.43
2023-03-26T15:49:07.177Z,4.77
2023-03-26T15:51:51.892Z,4.83
2023-03-26T15:54:27.598Z,3.70
2023-03-26T15:57:24.894Z,3.23
2023-03-26T16:00:12.339Z,5.57
2023-03-26T16:02:50.473Z,5.83
2023-03-26T16:05:37.246Z,3.57
2023-03-26T16:08:16.084Z,5.73
2023-03-26T16:10:52.587Z,3.50
2023-03-26T16:13:43.467Z,4.53
2023-03-26T16:16:52.800Z,3.17
2023-03-26T16:19:49.494Z,3.53
2023-03-26T16:22:42.693Z,3.90
2023-03-26T16:25:27.714Z,6.03
2023-03-26T16:28:30.516Z,7.63
2023-03-26T16:31:36.709Z,4.70
2023-03-26T16:34:43.655Z,2.80
2023-03-26T16:37:42.871Z,5.83
2023-03-26T16:41:00.209Z,4.73
2023-03-26T16:43:47.833Z,3.27
2023-03-26T16:46:30.076Z,4.53
2023-03-26T16:49:04.980Z,3.43
2023-03-26T16:51:51.073Z,2.13
2023-03-26T16:54:25.669Z,2.80
2023-03-26T16:56:59.882Z,4.73
2023-03-26T16:59:46.549Z,4.93
2023-03-26T17:02:46.471Z,5.37
2023-03-26T17:05:21.234Z,2.33
2023-03-26T17:07:56.742Z,3.10
2023-03-26T17:10:33.858Z,4.83
2023-03-26T17:13:08.401Z,3.47
2023-03-26T17:15:46.259Z,4.97
2023-03-26T17:18:28.840Z,3.90
2023-03-26T17:21:03.795Z,3.60
2023-03-26T17:23:48.692Z,4.30
2023-03-26T17:26:23.757Z,2.83
2023-03-26T17:29:07.809Z,2.70
2023-03-26T17:31:44.212Z,2.67
2023-03-26T17:34:40.429Z,2.70
2023-03-26T17:37:12.211Z,2.93
2023-03-26T17:40:38.061Z,6.60
2023-03-26T17:43:11.240Z,4.10
2023-03-26T17:45:43.852Z,4.57
2023-03-26T17:48:18.474Z,4.60
2023-03-26T17:50:53.420Z,2.40
2023-03-26T17:53:26.442Z,3.47
2023-03-26T17:55:57.073Z,4.60
2023-03-26T17:58:30.685Z,3.57
2023-03-26T18:01:07.960Z,3.27
2023-03-26T18:03:41.179Z,3.13
2023-03-26T18:06:15.560Z,4.93
2023-03-26T18:09:05.974Z,4.33
2023-03-26T18:12:02.161Z,2.23
2023-03-26T18:15:02.142Z,4.40
2023-03-26T18:17:39.957Z,3.43
2023-03-26T18:20:19.630Z,6.00
2023-03-26T18:22:50.953Z,2.07
2023-03-26T18:25:25.250Z,3.73
2023-03-26T18:27:54.390Z,5.60
2023-03-26T18:30:26.050Z,6.67
2023-03-26T18:33:01.394Z,5.90
2023-03-26T18:35:40.700Z,4.43
2023-03-26T18:38:18.763Z,7.73
2023-03-26T18:41:05.964Z,5.03
2023-03-26T18:43:44.200Z,3.53
2023-03-26T18:46:14.562Z,4.70
2023-03-26T18:48:43.584Z,5.47
2023-03-26T18:51:12.554Z,6.23
2023-03-26T18:53:47.817Z,3.60
2023-03-26T18:56:30.275Z,4.97
2023-03-26T18:59:00.661Z,4.80
2023-03-26T19:01:31.669Z,6.17
2023-03-26T19:04:03.998Z,5.27
2023-03-26T19:06:35.989Z,6.50
2023-03-26T19:09:19.635Z,8.33
2023-03-26T19:11:57.163Z,9.23
2023-03-26T19:14:27.715Z,5.87
2023-03-26T19:17:01.510Z,7.73
2023-03-26T19:19:34.479Z,9.40
2023-03-26T19:22:03.663Z,9.20
2023-03-26T19:24:33.779Z,7.67
2023-03-26T19:27:02.755Z,13.87
2023-03-26T19:29:34.564Z,9.87
2023-03-26T19:32:04.881Z,10.60
2023-03-26T19:34:35.771Z,9.00
2023-03-26T19:37:05.634Z,10.33
2023-03-26T19:39:42.940Z,11.37
2023-03-26T19:42:16.160Z,6.63
2023-03-26T19:44:45.437Z,4.73
2023-03-26T19:47:21.217Z,9.07
2023-03-26T19:49:54.864Z,9.73
2023-03-26T19:52:26.145Z,14.23
2023-03-26T19:55:01.426Z,9.60
2023-03-26T19:57:31.918Z,11.73
2023-03-26T20:00:00.765Z,7.67
2023-03-26T20:02:29.400Z,8.63
2023-03-26T20:04:57.894Z,5.83
2023-03-26T20:07:35.745Z,6.03
2023-03-26T20:10:06.955Z,7.80
2023-03-26T20:12:35.158Z,7.47
2023-03-26T20:15:03.821Z,10.80
2023-03-26T20:17:35.089Z,15.27
2023-03-26T20:20:05.864Z,10.90
2023-03-26T20:22:34.249Z,10.50
2023-03-26T20:25:03.171Z,12.67
2023-03-26T20:27:32.903Z,11.13
2023-03-26T20:30:01.866Z,12.07
2023-03-26T20:32:31.150Z,8.07
2023-03-26T20:34:59.578Z,14.03
2023-03-26T20:37:27.973Z,12.67
2023-03-26T20:39:56.512Z,10.13
2023-03-26T20:42:24.964Z,17.93
2023-03-26T20:44:57.931Z,10.40
2023-03-26T20:47:26.544Z,12.27
2023-03-26T20:49:56.344Z,9.00
2023-03-26T20:52:26.608Z,8.13
2023-03-26T20:54:55.104Z,9.37
2023-03-26T20:57:27.514Z,13.33
2023-03-26T20:59:57.500Z,12.63
2023-03-26T21:02:26.463Z,12.30
2023-03-26T21:04:57.413Z,12.20
2023-03-26T21:07:25.712Z,36.27
2023-03-26T21:09:57.955Z,11.90
2023-03-26T21:12:31.652Z,8.93
2023-03-26T21:15:07.189Z,9.13
2023-03-26T21:17:39.878Z,9.63
2023-03-26T21:20:11.563Z,13.80
2023-03-26T21:22:46.321Z,12.73
2023-03-26T21:25:25.861Z,11.87
2023-03-26T21:28:09.210Z,11.60
2023-03-26T21:30:40.012Z,12.10
2023-03-26T21:33:08.634Z,9.53
2023-03-26T21:35:37.852Z,12.77
2023-03-26T21:38:09.415Z,10.20
2023-03-26T21:40:40.599Z,10.40
2023-03-26T21:43:13.636Z,8.33
2023-03-26T21:45:44.622Z,6.37
2023-03-26T21:48:14.124Z,11.93
2023-03-26T21:50:43.394Z,8.93
2023-03-26T21:53:15.465Z,9.90
2023-03-26T21:55:55.951Z,10.27
2023-03-26T21:58:38.796Z,15.67
2023-03-26T22:01:21.531Z,10.03
2023-03-26T22:04:03.353Z,9.97
2023-03-26T22:06:38.448Z,9.93
2023-03-26T22:09:07.389Z,10.17
2023-03-26T22:11:35.746Z,14.83
2023-03-26T22:14:05.140Z,8.87
2023-03-26T22:16:35.298Z,10.20
2023-03-26T22:19:03.919Z,8.63
2023-03-26T22:21:33.910Z,10.50
2023-03-26T22:24:04.177Z,15.30
2023-03-26T22:26:32.515Z,7.33
2023-03-26T22:29:00.928Z,13.13
2023-03-26T22:31:29.412Z,10.43
2023-03-26T22:33:58.922Z,10.70
2023-03-26T22:36:27.387Z,7.57
2023-03-26T22:38:56.739Z,10.20
2023-03-26T22:41:25.750Z,10.40
2023-03-26T22:43:55.339Z,7.87
2023-03-26T22:46:24.776Z,10.93
2023-03-26T22:48:53.028Z,9.50
2023-03-26T22:51:22.643Z,8.73
2023-03-26T22:53:50.769Z,6.00
2023-03-26T22:56:19.205Z,12.27
2023-03-26T22:58:48.328Z,6.93
2023-03-26T23:01:18.910Z,7.53
2023-03-26T23:03:47.693Z,10.17
2023-03-26T23:06:16.088Z,6.57
2023-03-26T23:08:46.208Z,5.63
2023-03-26T23:11:16.839Z,6.93
2023-03-26T23:13:46.008Z,6.67
2023-03-26T23:16:16.285Z,7.80
2023-03-26T23:18:45.740Z,10.17
2023-03-26T23:21:16.528Z,10.80
2023-03-26T23:23:47.364Z,5.17
2023-03-26T23:26:17.002Z,6.13
2023-03-26T23:28:45.583Z,6.37
2023-03-26T23:31:14.956Z,5.23
2023-03-26T23:33:46.781Z,9.07
2023-03-26T23:36:18.910Z,4.53
2023-03-26T23:38:50.094Z,2.93
2023-03-26T23:41:21.865Z,4.40
2023-03-26T23:43:55.732Z,5.87
2023-03-26T23:46:25.933Z,6.57
2023-03-26T23:48:55.183Z,5.90
2023-03-26T23:51:24.208Z,15.83
2023-03-26T23:53:55.064Z,5.93
2023-03-26T23:56:23.804Z,4.97
2023-03-26T23:58:53.096Z,5.33
